Time;durP1;ratioP1;P1;durP2;ratioP2;P2;SDS_P1;SDS_P2;PMS_P1;PMS_P2;Temp;Humidity;BMP_temperature;BMP_pressure;BME280_temperature;BME280_humidity;BME280_pressure;Samples;Min_cycle;Max_cycle;Signal;HPM_P1;HPM_P2
2022/05/07 00:02:43;;;;;;;7.07;5.07;;;14.60;96.90;;;;;;12789200;23;20195;-77
2022/05/07 00:07:47;;;;;;;8.85;5.63;;;14.80;95.80;;;;;;12737608;23;20179;-77
2022/05/07 00:12:50;;;;;;;8.07;4.90;;;14.80;95.20;;;;;;12739328;23;20179;-77
2022/05/07 00:18:01;;;;;;;5.57;4.33;;;14.50;96.70;;;;;;12740369;23;20200;-77
2022/05/07 00:23:04;;;;;;;6.93;5.17;;;14.60;96.40;;;;;;12810029;23;20218;-77
2022/05/07 00:28:07;;;;;;;6.20;5.23;;;14.60;96.30;;;;;;12791795;23;20218;-77
2022/05/07 00:33:09;;;;;;;7.93;5.47;;;14.30;97.10;;;;;;12793342;23;20168;-77
2022/05/07 00:38:11;;;;;;;10.67;6.67;;;14.60;96.60;;;;;;12795801;23;20566;-77
2022/05/07 00:43:15;;;;;;;9.67;5.17;;;14.50;95.50;;;;;;12795379;23;20267;-77
2022/05/07 00:48:18;;;;;;;9.30;5.50;;;14.10;97.60;;;;;;12768419;23;20712;-77
2022/05/07 00:53:22;;;;;;;8.23;6.00;;;14.40;97.00;;;;;;12744454;23;20500;-77
2022/05/07 00:58:25;;;;;;;8.20;6.10;;;14.10;97.10;;;;;;12744277;23;20199;-77
2022/05/07 01:03:28;;;;;;;7.07;5.23;;;14.20;97.30;;;;;;12805041;23;20214;-77
2022/05/07 01:08:32;;;;;;;8.50;6.43;;;14.40;97.10;;;;;;12769032;23;20554;-77
2022/05/07 01:13:37;;;;;;;7.30;6.13;;;14.30;96.20;;;;;;12767583;23;20561;-77
2022/05/07 01:18:41;;;;;;;7.27;5.03;;;14.50;96.50;;;;;;12767669;23;20729;-77
2022/05/07 01:23:47;;;;;;;8.13;7.30;;;14.20;97.20;;;;;;12744591;23;20543;-77
2022/05/07 01:28:51;;;;;;;5.90;4.97;;;14.40;96.10;;;;;;12766727;23;20175;-77
2022/05/07 01:33:54;;;;;;;7.37;5.17;;;14.50;96.20;;;;;;12767696;23;20210;-76
2022/05/07 01:38:58;;;;;;;10.83;6.47;;;14.10;96.40;;;;;;12767414;23;20199;-77
2022/05/07 01:44:01;;;;;;;13.07;6.93;;;13.40;96.20;;;;;;12767469;23;20254;-77
2022/05/07 01:49:03;;;;;;;6.10;5.47;;;13.20;99.00;;;;;;12766399;23;20184;-77
2022/05/07 01:54:08;;;;;;;3.70;3.30;;;13.80;99.10;;;;;;12766591;23;20179;-77
2022/05/07 01:59:12;;;;;;;7.80;5.40;;;13.50;99.70;;;;;;12767280;23;20196;-77
2022/05/07 02:04:15;;;;;;;7.77;5.40;;;13.70;98.20;;;;;;12766920;23;20231;-77
2022/05/07 02:09:18;;;;;;;8.63;7.33;;;13.80;99.00;;;;;;12766734;23;20183;-77
2022/05/07 02:14:21;;;;;;;7.80;5.33;;;14.00;97.00;;;;;;12742139;23;20230;-77
2022/05/07 02:19:24;;;;;;;8.20;5.87;;;13.60;98.80;;;;;;12800391;23;20511;-77
2022/05/07 02:24:30;;;;;;;9.27;7.97;;;14.10;98.10;;;;;;12766892;23;20234;-76
2022/05/07 02:29:32;;;;;;;10.73;9.07;;;12.90;95.30;;;;;;12765808;23;20247;-77
2022/05/07 02:34:38;;;;;;;8.43;6.20;;;12.70;97.50;;;;;;12765885;23;20226;-77
2022/05/07 02:39:50;;;;;;;8.07;5.20;;;13.00;99.90;;;;;;12766149;23;20195;-77
2022/05/07 02:44:54;;;;;;;9.57;6.43;;;13.40;99.90;;;;;;12793070;23;20168;-77
2022/05/07 02:49:56;;;;;;;10.03;6.97;;;13.60;98.90;;;;;;12741274;23;20180;-77
2022/05/07 02:55:01;;;;;;;6.90;5.73;;;13.60;98.80;;;;;;12741670;23;20172;-77
2022/05/07 03:00:05;;;;;;;5.97;5.37;;;13.60;98.50;;;;;;12765341;23;20250;-77
2022/05/07 03:05:11;;;;;;;6.50;5.77;;;13.80;98.40;;;;;;12765529;23;20176;-77
2022/05/07 03:10:14;;;;;;;9.57;6.00;;;13.90;98.30;;;;;;12740728;23;20171;-77
2022/05/07 03:15:16;;;;;;;6.20;5.00;;;13.90;97.30;;;;;;12764726;23;20171;-77
2022/05/07 03:20:19;;;;;;;5.67;4.57;;;13.40;98.80;;;;;;12765557;23;20498;-77
2022/05/07 03:25:24;;;;;;;5.90;5.07;;;13.90;98.40;;;;;;12741334;23;20842;-77
2022/05/07 03:30:26;;;;;;;6.60;5.67;;;13.70;98.10;;;;;;12809669;23;20164;-77
2022/05/07 03:35:43;;;;;;;5.27;4.33;;;13.90;97.30;;;;;;12764913;23;20191;-77
2022/05/07 03:40:46;;;;;;;4.73;4.10;;;13.70;98.60;;;;;;12764842;23;20203;-77
2022/05/07 03:45:50;;;;;;;7.07;6.00;;;13.80;97.90;;;;;;12765050;23;20570;-77
2022/05/07 03:50:53;;;;;;;5.60;4.90;;;13.60;97.30;;;;;;12764146;23;20519;-77
2022/05/07 03:56:02;;;;;;;3.50;3.17;;;13.70;97.80;;;;;;12765022;23;20533;-78
2022/05/07 04:01:08;;;;;;;5.50;4.10;;;14.00;98.40;;;;;;12740843;23;20183;-77
2022/05/07 04:06:12;;;;;;;5.27;4.27;;;14.50;96.30;;;;;;12763338;23;20572;-77
2022/05/07 04:11:15;;;;;;;3.77;3.37;;;15.00;95.30;;;;;;12737360;23;20206;-77
2022/05/07 04:16:18;;;;;;;5.33;3.27;;;15.40;94.10;;;;;;12806707;23;20192;-77
2022/05/07 04:21:43;;;;;;;4.93;4.43;;;15.70;93.20;;;;;;12806313;23;20601;-77
2022/05/07 04:26:53;;;;;;;5.33;4.47;;;15.70;92.50;;;;;;12760491;23;20226;-78
2022/05/07 04:31:56;;;;;;;4.30;3.90;;;15.80;92.60;;;;;;12760583;23;20252;-77
2022/05/07 04:36:59;;;;;;;4.00;3.50;;;15.90;92.00;;;;;;12756718;23;20245;-77
2022/05/07 04:42:02;;;;;;;8.10;6.20;;;15.70;92.60;;;;;;12735190;23;20234;-77
2022/05/07 04:47:22;;;;;;;10.50;8.07;;;15.40;92.40;;;;;;12758949;23;20580;-77
2022/05/07 04:52:26;;;;;;;8.60;6.43;;;14.90;92.90;;;;;;12756296;23;20211;-77
2022/05/07 04:57:29;;;;;;;9.00;6.67;;;14.80;94.00;;;;;;12760480;23;20223;-77
2022/05/07 05:02:38;;;;;;;12.40;9.70;;;14.90;94.00;;;;;;12738653;23;20175;-77
2022/05/07 05:07:44;;;;;;;6.23;5.53;;;14.60;93.60;;;;;;12738900;23;20234;-77
2022/05/07 05:12:54;;;;;;;11.67;8.57;;;14.90;93.90;;;;;;12738016;23;20226;-77
2022/05/07 05:17:56;;;;;;;10.67;8.90;;;14.60;93.90;;;;;;12790095;23;20188;-77
2022/05/07 05:22:59;;;;;;;18.17;11.13;;;14.30;94.00;;;;;;12766123;23;20246;-77
2022/05/07 05:28:08;;;;;;;12.47;6.87;;;14.00;94.10;;;;;;12765478;23;20198;-77
2022/05/07 05:33:11;;;;;;;9.33;6.70;;;14.10;95.50;;;;;;12765680;23;20179;-77
2022/05/07 05:38:21;;;;;;;14.27;9.67;;;14.30;95.20;;;;;;12764476;23;20262;-77
2022/05/07 05:43:23;;;;;;;8.43;7.10;;;13.90;95.10;;;;;;12764473;23;20250;-78
2022/05/07 05:48:29;;;;;;;16.23;9.83;;;14.10;95.80;;;;;;12768507;23;20171;-78
2022/05/07 05:53:33;;;;;;;9.83;7.90;;;14.30;94.70;;;;;;12794395;23;20171;-77
2022/05/07 05:58:36;;;;;;;12.53;8.23;;;14.30;95.60;;;;;;12766585;23;20266;-77
2022/05/07 06:03:40;;;;;;;9.17;7.33;;;14.60;93.90;;;;;;12743257;23;20175;-77
2022/05/07 06:08:46;;;;;;;6.93;6.10;;;14.50;93.20;;;;;;12766992;23;20709;-77
2022/05/07 06:13:50;;;;;;;9.17;5.90;;;14.60;94.10;;;;;;12766220;23;20203;-77
2022/05/07 06:18:59;;;;;;;7.77;6.07;;;14.90;93.80;;;;;;12766579;23;20198;-77
2022/05/07 06:29:25;;;;;;;8.03;6.57;;;15.20;92.10;;;;;;12764876;23;20201;-78
2022/05/07 06:34:27;;;;;;;11.20;5.00;;;15.50;90.70;;;;;;12766605;23;20180;-77
2022/05/07 06:39:33;;;;;;;5.03;4.07;;;15.50;91.70;;;;;;12765952;23;20590;-78
2022/05/07 06:44:36;;;;;;;8.93;5.90;;;15.80;90.90;;;;;;12766275;23;20204;-78
2022/05/07 06:49:42;;;;;;;7.37;5.70;;;15.80;89.50;;;;;;12767285;23;20172;-77
2022/05/07 06:54:45;;;;;;;6.77;5.90;;;16.20;87.70;;;;;;12741154;23;20176;-77
2022/05/07 06:59:47;;;;;;;10.80;6.57;;;16.30;86.80;;;;;;12741374;23;20512;-77
2022/05/07 07:04:49;;;;;;;11.17;6.50;;;16.60;86.80;;;;;;12791640;23;20183;-77
2022/05/07 07:09:53;;;;;;;7.60;5.23;;;16.90;85.80;;;;;;12791377;23;20227;-78
2022/05/07 07:14:57;;;;;;;3.70;3.35;;;18.40;83.10;;;;;;12792077;23;20207;-78
2022/05/07 07:19:59;;;;;;;3.78;3.47;;;18.50;82.10;;;;;;12792777;23;20195;-78
2022/05/07 07:25:03;;;;;;;11.38;5.80;;;18.30;82.50;;;;;;12791978;23;20206;-76
2022/05/07 07:30:06;;;;;;;4.55;4.10;;;18.20;83.80;;;;;;12764948;23;20519;-76
2022/05/07 07:35:13;;;;;;;6.87;5.50;;;18.50;81.40;;;;;;12796726;23;20230;-76
2022/05/07 07:40:16;;;;;;;5.38;3.53;;;18.50;81.30;;;;;;12764640;23;20204;-78
2022/05/07 07:50:44;;;;;;;3.23;2.73;;;19.10;78.00;;;;;;12764426;23;20179;-77
2022/05/07 07:55:47;;;;;;;5.23;3.10;;;19.30;77.60;;;;;;12742293;23;20172;-78
2022/05/07 08:00:49;;;;;;;3.13;2.80;;;19.30;76.90;;;;;;12764579;23;20196;-78
2022/05/07 08:05:53;;;;;;;3.30;3.00;;;19.40;76.00;;;;;;12765085;23;20172;-78
2022/05/07 08:16:18;;;;;;;6.43;3.67;;;19.50;73.50;;;;;;12805919;23;20571;-77
2022/05/07 08:21:21;;;;;;;3.92;2.75;;;19.50;72.10;;;;;;12764326;23;20254;-77
2022/05/07 08:26:24;;;;;;;3.43;3.00;;;19.50;74.00;;;;;;12786414;23;20168;-77
2022/05/07 08:31:27;;;;;;;3.55;3.05;;;19.70;74.40;;;;;;12779405;23;20234;-78
2022/05/07 08:36:29;;;;;;;3.40;3.10;;;19.50;70.80;;;;;;12790261;23;20172;-77
2022/05/07 08:41:33;;;;;;;3.58;2.85;;;19.80;70.10;;;;;;12764876;23;20581;-77
2022/05/07 08:46:38;;;;;;;6.80;4.70;;;19.70;72.30;;;;;;12790551;23;20168;-77
2022/05/07 08:51:41;;;;;;;6.05;3.88;;;19.80;69.60;;;;;;12763810;23;20195;-78
2022/05/07 08:56:43;;;;;;;4.30;2.90;;;19.30;65.90;;;;;;12768902;23;20168;-77
2022/05/07 09:01:46;;;;;;;2.95;2.65;;;19.80;72.80;;;;;;12794741;23;20168;-77
2022/05/07 09:07:03;;;;;;;2.75;2.33;;;20.20;72.10;;;;;;12765972;23;20222;-77
2022/05/07 09:12:06;;;;;;;10.93;3.83;;;20.00;72.50;;;;;;12811920;23;20218;-78
2022/05/07 09:17:08;;;;;;;3.55;2.90;;;20.00;69.80;;;;;;12784227;23;20218;-78
2022/05/07 09:22:11;;;;;;;2.88;2.60;;;20.00;69.20;;;;;;12765805;23;20733;-78
2022/05/07 09:27:17;;;;;;;3.25;2.92;;;19.80;72.30;;;;;;12767159;23;20222;-77
2022/05/07 09:32:19;;;;;;;5.55;3.13;;;19.90;71.20;;;;;;12791744;23;20234;-78
2022/05/07 09:37:22;;;;;;;4.75;3.90;;;20.10;68.90;;;;;;12782156;23;20217;-77
2022/05/07 09:42:25;;;;;;;3.33;2.83;;;20.10;64.90;;;;;;12792773;23;20576;-77
2022/05/07 09:47:28;;;;;;;2.93;2.63;;;19.80;71.50;;;;;;12763787;23;20183;-78
2022/05/07 09:52:31;;;;;;;5.93;3.87;;;19.80;71.90;;;;;;12792913;23;20485;-77
2022/05/07 09:57:34;;;;;;;8.30;3.70;;;19.80;66.90;;;;;;12767118;23;20456;-77
2022/05/07 10:02:51;;;;;;;9.23;4.20;;;20.00;65.90;;;;;;12809668;23;20172;-78
2022/05/07 10:08:29;;;;;;;7.00;3.50;;;20.10;67.80;;;;;;12784618;23;20171;-79
2022/05/07 10:13:32;;;;;;;6.63;3.20;;;20.40;66.30;;;;;;12461298;23;20695;-79
2022/05/07 10:18:41;;;;;;;5.40;2.73;;;20.30;65.10;;;;;;12485653;23;20191;-80
2022/05/07 10:23:51;;;;;;;3.40;3.10;;;19.50;64.20;;;;;;12466359;23;20222;-79
2022/05/07 10:28:55;;;;;;;6.37;3.07;;;19.30;64.40;;;;;;12496601;23;20207;-79
2022/05/07 10:33:57;;;;;;;4.80;2.60;;;19.40;66.40;;;;;;12484091;23;20187;-79
2022/05/07 10:39:07;;;;;;;8.27;3.33;;;19.70;64.60;;;;;;12484826;23;20199;-80
2022/05/07 10:44:09;;;;;;;11.02;2.80;;;19.90;64.80;;;;;;12486816;23;20202;-80
2022/05/07 10:49:12;;;;;;;3.97;2.90;;;20.20;65.30;;;;;;12646987;23;20271;-78
2022/05/07 10:54:26;;;;;;;5.97;3.75;;;20.10;63.00;;;;;;12792548;23;20199;-78
2022/05/07 10:59:29;;;;;;;4.53;2.97;;;20.50;61.90;;;;;;12765356;23;20667;-78
2022/05/07 11:04:42;;;;;;;7.77;2.53;;;20.20;63.00;;;;;;12765894;23;20180;-78
2022/05/07 11:09:49;;;;;;;3.23;2.70;;;20.00;62.30;;;;;;12764907;23;20234;-78
2022/05/07 11:14:52;;;;;;;3.70;2.87;;;19.70;62.30;;;;;;12809586;23;20172;-79
2022/05/07 11:19:55;;;;;;;5.27;3.40;;;19.60;62.80;;;;;;12740517;23;20260;-77
2022/05/07 11:25:02;;;;;;;6.27;3.50;;;19.80;62.90;;;;;;12810551;23;20222;-77
2022/05/07 11:30:10;;;;;;;7.37;3.20;;;19.70;64.00;;;;;;12810276;23;20477;-77
2022/05/07 11:35:13;;;;;;;6.97;3.80;;;19.90;63.20;;;;;;12797428;23;20176;-77
2022/05/07 11:40:27;;;;;;;28.70;11.23;;;20.50;66.30;;;;;;12810191;23;20246;-77
2022/05/07 11:45:30;;;;;;;27.88;8.43;;;20.80;65.20;;;;;;12792299;23;20186;-78
2022/05/07 11:50:41;;;;;;;4.78;3.42;;;20.90;63.10;;;;;;12765789;23;20597;-78
2022/05/07 11:55:45;;;;;;;4.32;3.35;;;20.50;66.30;;;;;;12809131;23;20172;-77
2022/05/07 12:00:49;;;;;;;12.73;5.22;;;20.50;67.20;;;;;;12764797;23;20506;-77
2022/05/07 12:05:54;;;;;;;8.68;3.00;;;20.20;63.20;;;;;;12790908;23;20199;-78
2022/05/07 12:10:57;;;;;;;43.72;13.82;;;20.10;62.00;;;;;;12739526;23;20199;-78
2022/05/07 12:32:05;;;;;;;5.33;4.83;;;27.80;99.90;;;;;;12769183;23;20175;-79
2022/05/07 12:37:08;;;;;;;11.93;5.20;;;30.30;99.90;;;;;;12813124;23;20526;-79
2022/05/07 12:42:15;;;;;;;31.33;9.30;;;29.30;99.90;;;;;;12767886;23;20203;-79
2022/05/07 12:47:18;;;;;;;25.00;5.60;;;32.30;99.90;;;;;;12768899;23;20178;-79
2022/05/07 12:52:23;;;;;;;4.77;3.80;;;27.60;99.90;;;;;;12812897;23;20569;-80
2022/05/07 12:57:26;;;;;;;4.10;3.73;;;25.70;99.90;;;;;;12766623;23;20631;-80
2022/05/07 13:02:30;;;;;;;4.20;3.80;;;27.60;99.90;;;;;;12811687;23;20565;-80
2022/05/07 13:07:33;;;;;;;9.47;3.70;;;26.30;99.90;;;;;;12795199;23;20514;-79
2022/05/07 13:12:36;;;;;;;44.63;14.73;;;25.70;99.90;;;;;;12766126;23;20565;-78
2022/05/07 13:17:38;;;;;;;6.83;3.90;;;25.00;99.90;;;;;;12794279;23;20222;-78
2022/05/07 13:22:41;;;;;;;3.87;2.90;;;23.80;99.90;;;;;;12767341;23;20171;-79
2022/05/07 13:27:45;;;;;;;4.17;3.00;;;22.90;99.90;;;;;;12768155;23;20626;-80
2022/05/07 13:32:47;;;;;;;12.53;4.00;;;21.70;99.90;;;;;;12794157;23;20548;-80
2022/05/07 13:37:50;;;;;;;26.77;8.30;;;21.40;99.90;;;;;;12768359;23;20565;-80
2022/05/07 13:42:54;;;;;;;6.00;3.23;;;21.10;99.90;;;;;;12766437;23;20222;-80
2022/05/07 13:47:57;;;;;;;11.47;4.93;;;20.40;99.90;;;;;;12768164;23;20168;-79
2022/05/07 13:52:59;;;;;;;7.00;3.77;;;20.30;99.90;;;;;;12794248;23;20168;-80
2022/05/07 13:58:03;;;;;;;6.38;3.15;;;19.90;99.90;;;;;;12793262;23;20576;-81
2022/05/07 14:03:08;;;;;;;9.10;5.03;;;19.30;99.90;;;;;;12764972;23;20226;-80
2022/05/07 14:08:10;;;;;;;8.90;5.53;;;19.00;99.90;;;;;;12793977;23;20168;-79
2022/05/07 14:13:13;;;;;;;7.20;5.13;;;17.30;99.90;;;;;;12791873;23;20179;-79
2022/05/07 14:18:16;;;;;;;6.37;5.77;;;17.30;99.90;;;;;;12741337;23;20188;-79
2022/05/07 14:23:21;;;;;;;7.43;6.03;;;16.50;99.90;;;;;;12793248;23;20167;-79
2022/05/07 14:28:23;;;;;;;7.30;4.50;;;16.60;99.90;;;;;;12765921;23;20172;-80
2022/05/07 14:33:26;;;;;;;7.80;4.33;;;16.90;99.90;;;;;;12765234;23;20176;-79
2022/05/07 14:38:28;;;;;;;10.93;4.90;;;16.90;99.90;;;;;;12791778;23;20625;-79
2022/05/07 14:43:31;;;;;;;8.47;4.50;;;16.80;99.90;;;;;;12766637;23;20191;-79
2022/05/07 14:48:33;;;;;;;5.53;3.97;;;16.90;99.90;;;;;;12760899;23;20215;-78
2022/05/07 14:53:36;;;;;;;5.17;3.63;;;16.70;99.90;;;;;;12788651;23;20171;-79
2022/05/07 14:58:38;;;;;;;4.27;3.87;;;16.70;99.90;;;;;;12760616;23;20191;-79
2022/05/07 15:03:41;;;;;;;5.27;3.90;;;16.80;99.90;;;;;;12787356;23;20168;-78
2022/05/07 15:14:05;;;;;;;5.20;4.50;;;16.90;99.90;;;;;;12805861;23;20223;-78
2022/05/07 15:19:08;;;;;;;5.80;4.60;;;17.20;99.90;;;;;;12785038;23;20184;-78
2022/05/07 15:24:10;;;;;;;6.90;4.57;;;17.50;99.90;;;;;;12760797;23;20163;-78
2022/05/07 15:29:13;;;;;;;5.35;4.20;;;17.70;99.90;;;;;;12759889;23;20171;-78
2022/05/07 15:39:37;;;;;;;11.00;4.50;;;18.20;99.90;;;;;;12804000;23;20215;-78
2022/05/07 15:44:41;;;;;;;4.72;4.30;;;18.30;99.90;;;;;;12759641;23;20195;-78
2022/05/07 15:49:48;;;;;;;4.75;3.92;;;18.50;99.90;;;;;;12759718;23;20229;-78
2022/05/07 15:54:53;;;;;;;3.85;3.45;;;18.70;99.90;;;;;;12805169;23;20218;-78
2022/05/07 15:59:56;;;;;;;5.60;3.58;;;18.80;99.90;;;;;;12786309;23;20558;-79
2022/05/07 16:04:59;;;;;;;5.18;3.35;;;19.10;99.90;;;;;;12786277;23;20172;-80
2022/05/07 16:10:01;;;;;;;26.30;17.92;;;18.90;99.90;;;;;;12786514;23;20172;-80
2022/05/07 16:15:05;;;;;;;5.40;3.95;;;19.30;99.90;;;;;;12784489;23;20167;-80
2022/05/07 16:20:09;;;;;;;5.32;3.92;;;;;;;;;;12786115;23;20192;-80
2022/05/07 16:25:11;;;;;;;4.35;3.80;;;19.10;97.70;;;;;;12763522;23;20231;-79
2022/05/07 16:30:14;;;;;;;4.88;3.47;;;19.40;94.70;;;;;;12791175;23;20171;-79
2022/05/07 16:35:18;;;;;;;3.97;3.45;;;19.10;99.90;;;;;;12790188;23;20176;-79
2022/05/07 16:40:21;;;;;;;6.82;3.30;;;18.90;99.90;;;;;;12788164;23;20246;-81
2022/05/07 16:45:24;;;;;;;7.15;4.70;;;18.90;97.50;;;;;;12763472;23;20164;-78
2022/05/07 16:50:26;;;;;;;9.85;4.13;;;18.70;99.90;;;;;;12791233;23;20226;-79
2022/05/07 16:55:29;;;;;;;6.90;3.00;;;19.20;92.70;;;;;;12790090;23;20172;-78
2022/05/07 17:00:33;;;;;;;3.90;3.20;;;19.20;92.50;;;;;;12764526;23;20250;-78
2022/05/07 17:05:35;;;;;;;3.42;3.13;;;19.20;92.10;;;;;;12739292;23;20183;-78
2022/05/07 17:10:38;;;;;;;7.50;3.55;;;19.10;92.20;;;;;;12758839;23;20164;-78
2022/05/07 17:15:41;;;;;;;4.38;3.60;;;18.90;92.20;;;;;;12793417;23;20554;-78
2022/05/07 17:20:45;;;;;;;11.25;5.43;;;18.70;94.30;;;;;;12767964;23;20195;-78
2022/05/07 17:25:49;;;;;;;12.10;7.05;;;18.30;98.90;;;;;;12812190;23;20550;-78
2022/05/07 17:30:53;;;;;;;8.93;6.32;;;17.90;99.90;;;;;;12767421;23;20709;-78
2022/05/07 17:35:56;;;;;;;9.80;7.10;;;17.60;99.90;;;;;;12790142;23;20176;-78
2022/05/07 17:40:58;;;;;;;8.77;5.25;;;17.40;99.90;;;;;;12763833;23;20586;-78
2022/05/07 17:46:04;;;;;;;9.33;7.10;;;17.10;99.90;;;;;;12765823;23;20556;-78
2022/05/07 17:51:07;;;;;;;15.30;6.40;;;16.90;99.90;;;;;;12765480;23;20176;-78
2022/05/07 17:56:09;;;;;;;10.00;6.90;;;16.60;99.90;;;;;;12764976;23;20222;-78
2022/05/07 18:01:12;;;;;;;10.85;6.82;;;16.50;99.90;;;;;;12766097;23;20539;-79
2022/05/07 18:06:19;;;;;;;8.60;5.53;;;17.10;99.90;;;;;;12764008;23;20183;-79
2022/05/07 18:11:24;;;;;;;12.40;9.27;;;17.70;99.90;;;;;;12793108;23;20227;-79
2022/05/07 18:16:26;;;;;;;11.10;7.23;;;16.80;99.90;;;;;;12737929;23;20180;-79
2022/05/07 18:21:29;;;;;;;27.47;10.90;;;16.30;99.90;;;;;;12788736;23;20190;-80
2022/05/07 18:26:31;;;;;;;19.93;14.10;;;16.40;99.90;;;;;;12738662;23;20172;-78
2022/05/07 18:31:34;;;;;;;8.67;7.27;;;16.80;99.90;;;;;;12763802;23;20172;-78
2022/05/07 18:47:22;;;;;;;8.10;4.90;;;16.50;99.90;;;;;;12809559;23;20505;-79
2022/05/07 18:52:24;;;;;;;6.47;5.60;;;16.30;99.90;;;;;;12791950;23;20172;-79
2022/05/07 19:02:48;;;;;;;9.47;5.50;;;16.30;99.90;;;;;;12792954;23;20267;-79
2022/05/07 19:07:50;;;;;;;6.70;5.60;;;16.30;99.90;;;;;;12782565;23;20164;-79
2022/05/07 19:12:55;;;;;;;5.77;4.83;;;16.00;99.90;;;;;;12783362;23;20575;-79
2022/05/07 19:17:58;;;;;;;15.20;5.07;;;15.70;99.90;;;;;;12757717;23;20184;-79
2022/05/07 19:23:03;;;;;;;6.50;4.40;;;15.40;99.90;;;;;;12785099;23;20316;-79
2022/05/07 19:28:05;;;;;;;6.77;4.67;;;15.30;99.90;;;;;;12784466;23;20164;-79
2022/05/07 19:33:09;;;;;;;7.77;5.03;;;15.30;99.90;;;;;;12758495;23;20210;-79
2022/05/07 19:38:12;;;;;;;5.73;4.43;;;15.40;99.90;;;;;;12804785;23;20167;-79
2022/05/07 19:43:14;;;;;;;8.60;4.10;;;15.60;99.90;;;;;;12786673;23;20198;-78
2022/05/07 19:48:17;;;;;;;8.00;5.30;;;15.50;99.90;;;;;;12756896;23;20456;-79
2022/05/07 19:53:22;;;;;;;7.43;5.43;;;15.50;99.90;;;;;;12765228;23;20172;-79
2022/05/07 19:58:27;;;;;;;7.40;4.67;;;15.40;99.90;;;;;;12806971;23;20222;-79
2022/05/07 20:03:30;;;;;;;8.40;4.73;;;15.20;99.90;;;;;;12805591;23;20214;-80
2022/05/07 20:08:33;;;;;;;6.07;4.90;;;14.90;99.90;;;;;;12788695;23;20168;-79
2022/05/07 20:13:36;;;;;;;5.50;5.00;;;14.80;99.90;;;;;;12790683;23;20172;-80
2022/05/07 20:18:45;;;;;;;5.87;4.43;;;14.70;99.90;;;;;;12781246;23;20168;-80
2022/05/07 20:23:48;;;;;;;5.50;4.40;;;14.60;99.90;;;;;;12739803;23;20681;-80
2022/05/07 20:28:50;;;;;;;4.37;3.97;;;14.70;99.90;;;;;;12790936;23;20194;-80
2022/05/07 20:33:53;;;;;;;9.43;5.80;;;14.50;99.90;;;;;;12763724;23;20245;-80
2022/05/07 20:38:55;;;;;;;6.87;6.10;;;14.40;99.90;;;;;;12790005;23;20198;-80
2022/05/07 20:49:19;;;;;;;6.70;4.93;;;14.30;99.90;;;;;;12805476;23;20174;-80
2022/05/07 20:54:22;;;;;;;5.57;4.93;;;14.10;99.90;;;;;;12794421;23;20221;-79
2022/05/07 20:59:25;;;;;;;10.13;5.10;;;14.00;99.90;;;;;;12793550;23;20168;-80
2022/05/07 21:04:28;;;;;;;8.00;5.43;;;13.70;99.90;;;;;;12768312;23;20511;-80
2022/05/07 21:09:31;;;;;;;5.17;4.70;;;13.70;99.90;;;;;;12794485;23;20553;-80
2022/05/07 21:14:35;;;;;;;8.63;6.20;;;14.00;99.90;;;;;;12795296;23;20164;-80
2022/05/07 21:19:38;;;;;;;16.03;8.07;;;14.10;99.90;;;;;;12794543;23;20176;-80
2022/05/07 21:30:22;;;;;;;11.67;8.33;;;14.60;99.90;;;;;;12767158;23;20176;-77
2022/05/07 21:35:24;;;;;;;7.80;5.80;;;14.50;99.90;;;;;;12767493;23;20172;-78
2022/05/07 21:40:32;;;;;;;15.87;5.97;;;14.30;99.90;;;;;;12766449;23;20542;-78
2022/05/07 21:45:34;;;;;;;13.67;7.10;;;14.00;99.90;;;;;;12794785;23;20631;-78
2022/05/07 21:55:39;;;;;;;8.37;7.47;;;13.70;99.90;;;;;;12793740;23;20176;-77
2022/05/07 22:00:51;;;;;;;11.60;6.57;;;13.80;99.90;;;;;;12768223;23;20194;-77
2022/05/07 22:06:13;;;;;;;10.67;8.60;;;13.80;99.90;;;;;;12798939;23;20191;-78
2022/05/07 22:11:16;;;;;;;14.50;8.93;;;13.80;99.90;;;;;;12793004;23;20168;-80
2022/05/07 22:16:18;;;;;;;10.63;8.40;;;14.10;99.90;;;;;;12767783;23;20198;-78
2022/05/07 22:21:23;;;;;;;8.60;7.70;;;14.50;99.90;;;;;;12766971;23;20192;-79
2022/05/07 22:26:26;;;;;;;13.80;8.57;;;14.20;99.90;;;;;;12793813;23;20164;-79
2022/05/07 22:31:28;;;;;;;13.83;10.13;;;14.30;99.90;;;;;;12807097;23;20611;-79
2022/05/07 22:36:31;;;;;;;13.90;10.93;;;13.80;99.90;;;;;;12790807;23;20172;-79
2022/05/07 22:41:33;;;;;;;16.13;11.50;;;13.60;99.90;;;;;;12790903;23;20257;-79
2022/05/07 22:46:36;;;;;;;19.53;12.07;;;13.50;99.90;;;;;;12791824;23;20195;-79
2022/05/07 22:51:38;;;;;;;16.63;10.33;;;13.50;99.90;;;;;;12765587;23;20496;-79
2022/05/07 22:56:41;;;;;;;15.77;11.30;;;13.70;99.90;;;;;;12767331;23;20180;-79
2022/05/07 23:01:43;;;;;;;22.90;13.33;;;13.50;99.90;;;;;;12765202;23;20195;-79
2022/05/07 23:06:46;;;;;;;17.80;12.43;;;13.60;99.90;;;;;;12796737;23;20168;-79
2022/05/07 23:11:48;;;;;;;17.57;12.80;;;13.60;99.90;;;;;;12792329;23;20203;-79
2022/05/07 23:16:51;;;;;;;15.87;11.70;;;13.80;99.90;;;;;;12766208;23;20182;-79
2022/05/07 23:21:54;;;;;;;17.00;11.77;;;13.80;99.90;;;;;;12792028;23;20191;-79
2022/05/07 23:26:56;;;;;;;14.13;10.87;;;13.60;99.90;;;;;;12792894;23;20542;-79
2022/05/07 23:31:59;;;;;;;9.60;8.60;;;13.40;99.90;;;;;;12765441;23;20179;-79
2022/05/07 23:37:02;;;;;;;8.80;7.40;;;13.70;99.90;;;;;;12766994;23;20523;-79
2022/05/07 23:42:05;;;;;;;10.07;7.67;;;13.60;99.90;;;;;;12804527;23;20196;-79
2022/05/07 23:47:08;;;;;;;8.70;7.50;;;13.40;99.90;;;;;;12765041;23;20610;-79
2022/05/07 23:52:12;;;;;;;12.57;7.47;;;13.40;99.90;;;;;;12764783;23;20216;-79
2022/05/07 23:57:15;;;;;;;7.27;6.13;;;13.80;99.90;;;;;;12765787;23;20237;-79
